Time;durP1;ratioP1;P1;durP2;ratioP2;P2;SDS_P1;SDS_P2;PMS_P1;PMS_P2;Temp;Humidity;BMP_temperature;BMP_pressure;BME280_temperature;BME280_humidity;BME280_pressure;Samples;Min_cycle;Max_cycle;Signal;HPM_P1;HPM_P2
2023/06/24 00:02:23;;;;;;;9.77;4.45;;;;;;;27.17;46.07;99836.72;4373523;32;33721;-66
2023/06/24 00:04:52;;;;;;;8.75;5.30;;;;;;;27.21;45.98;99834.31;4363361;32;33999;-65
2023/06/24 00:07:22;;;;;;;9.05;4.68;;;;;;;27.23;45.88;99826.66;4377048;32;34910;-66
2023/06/24 00:09:50;;;;;;;8.57;5.60;;;;;;;27.20;45.77;99836.22;4363188;32;34437;-66
2023/06/24 00:12:19;;;;;;;7.47;4.68;;;;;;;27.21;45.76;99832.41;4377240;32;33722;-65
2023/06/24 00:14:47;;;;;;;9.73;5.80;;;;;;;27.21;45.75;99826.91;4377173;32;33860;-65
2023/06/24 00:17:16;;;;;;;8.45;5.60;;;;;;;27.25;45.59;99823.69;4363586;32;34437;-66
2023/06/24 00:19:44;;;;;;;9.05;4.68;;;;;;;27.24;45.57;99822.03;4363663;32;33663;-65
2023/06/24 00:22:11;;;;;;;8.10;4.57;;;;;;;27.24;45.62;99817.37;4376883;32;33906;-67
2023/06/24 00:24:42;;;;;;;8.45;4.72;;;;;;;27.26;45.68;99807.00;4364017;32;33987;-66
2023/06/24 00:27:10;;;;;;;9.27;4.90;;;;;;;27.30;45.71;99810.06;4377121;32;35387;-66
2023/06/24 00:29:38;;;;;;;6.90;5.20;;;;;;;27.31;45.74;99812.53;4377251;32;32989;-67
2023/06/24 00:32:06;;;;;;;7.20;5.15;;;;;;;27.34;45.72;99817.53;4363413;32;33914;-65
2023/06/24 00:34:34;;;;;;;7.60;5.43;;;;;;;27.38;45.70;99817.84;4377062;32;34706;-66
2023/06/24 00:37:02;;;;;;;7.00;4.70;;;;;;;27.41;45.64;99817.34;4377054;32;35059;-66
2023/06/24 00:39:30;;;;;;;8.38;4.93;;;;;;;27.43;45.61;99815.19;4376966;32;33385;-66
2023/06/24 00:41:59;;;;;;;7.10;5.43;;;;;;;27.45;45.60;99807.53;4365896;32;34389;-65
2023/06/24 00:44:26;;;;;;;8.65;5.40;;;;;;;27.48;45.57;99804.28;4361933;32;34050;-67
2023/06/24 00:46:54;;;;;;;6.28;4.32;;;;;;;27.49;45.59;99792.25;4362047;32;34039;-66
2023/06/24 00:49:21;;;;;;;6.25;4.90;;;;;;;27.50;45.56;99782.94;4362132;32;33685;-66
2023/06/24 00:51:50;;;;;;;8.40;4.85;;;;;;;27.52;45.49;99789.00;4348633;32;33800;-66
2023/06/24 00:54:18;;;;;;;6.40;5.10;;;;;;;27.53;45.46;99787.91;4362015;32;34757;-66
2023/06/24 00:56:46;;;;;;;9.10;5.62;;;;;;;27.55;45.38;99791.22;4368748;32;34270;-65
2023/06/24 00:59:15;;;;;;;7.12;4.60;;;;;;;27.56;45.32;99792.91;4363377;32;34160;-66
2023/06/24 01:01:44;;;;;;;7.70;5.22;;;;;;;27.57;45.33;99796.47;4376801;32;33616;-67
2023/06/24 01:04:12;;;;;;;8.00;4.93;;;;;;;27.58;45.26;99777.00;4363494;32;33923;-65
2023/06/24 01:06:43;;;;;;;8.82;5.37;;;;;;;27.62;45.15;99785.56;4363294;32;34955;-66
2023/06/24 01:09:12;;;;;;;7.32;4.93;;;;;;;27.60;45.12;99783.06;4363953;32;33500;-67
2023/06/24 01:11:39;;;;;;;7.40;4.85;;;;;;;27.62;45.13;99775.44;4376872;32;33980;-65
2023/06/24 01:14:07;;;;;;;8.05;5.10;;;;;;;27.63;45.11;99773.50;4363123;32;33872;-67
2023/06/24 01:16:52;;;;;;;7.93;5.30;;;;;;;27.64;45.02;99773.25;4363272;32;33700;-66
2023/06/24 01:19:54;;;;;;;7.47;4.85;;;;;;;27.67;44.98;99772.75;4363058;32;33561;-66
2023/06/24 01:22:40;;;;;;;7.28;5.20;;;;;;;27.69;44.91;99767.81;4363105;32;33827;-65
2023/06/24 01:25:59;;;;;;;9.70;5.20;;;;;;;27.66;44.93;99770.28;4376699;32;34070;-66
2023/06/24 01:28:56;;;;;;;7.43;4.87;;;;;;;27.68;44.84;99779.87;4351469;32;35132;-66
2023/06/24 01:31:50;;;;;;;7.40;4.72;;;;;;;27.67;44.83;99764.53;4376738;32;33882;-66
2023/06/24 01:34:42;;;;;;;6.90;4.55;;;;;;;27.69;44.84;99767.00;4376891;32;33977;-66
2023/06/24 01:37:40;;;;;;;7.07;4.82;;;;;;;27.69;44.82;99753.28;4363039;32;34092;-66
2023/06/24 01:40:18;;;;;;;7.87;4.60;;;;;;;27.67;44.79;99752.72;4365272;32;34034;-66
2023/06/24 01:42:45;;;;;;;7.87;4.62;;;;;;;27.68;44.87;99751.63;4363524;32;33453;-65
2023/06/24 01:45:14;;;;;;;6.65;4.12;;;;;;;27.67;44.87;99750.00;4376446;32;33615;-66
2023/06/24 01:47:44;;;;;;;6.63;4.17;;;;;;;27.68;44.75;99749.72;4363205;32;33906;-66
2023/06/24 01:50:12;;;;;;;7.25;4.25;;;;;;;27.68;44.76;99752.47;4362949;32;34011;-67
2023/06/24 01:52:43;;;;;;;6.40;4.47;;;;;;;27.69;44.63;99743.16;4350817;32;34266;-67
2023/06/24 01:55:18;;;;;;;6.25;4.72;;;;;;;27.69;44.62;99743.16;4362748;32;34036;-66
2023/06/24 01:57:48;;;;;;;6.22;4.12;;;;;;;27.69;44.60;99739.59;4363611;32;34014;-66
2023/06/24 02:00:15;;;;;;;6.28;4.12;;;;;;;27.69;44.51;99745.88;4362726;32;33897;-66
2023/06/24 02:02:48;;;;;;;5.70;4.07;;;;;;;27.71;44.50;99729.22;4376295;32;33745;-66
2023/06/24 02:05:16;;;;;;;6.60;4.40;;;;;;;27.71;44.39;99724.56;4362730;32;33937;-66
2023/06/24 02:07:44;;;;;;;8.20;4.70;;;;;;;27.71;44.48;99719.09;4362824;32;34762;-67
2023/06/24 02:10:12;;;;;;;6.05;4.18;;;;;;;27.71;44.40;99723.72;4362678;32;34906;-66
2023/06/24 02:12:40;;;;;;;6.78;4.25;;;;;;;27.70;44.38;99722.91;4362666;32;34504;-66
2023/06/24 02:15:07;;;;;;;6.03;4.07;;;;;;;27.71;44.25;99734.69;4375997;32;34798;-67
2023/06/24 02:17:35;;;;;;;6.53;4.12;;;;;;;27.71;44.19;99743.78;4376129;32;33845;-65
2023/06/24 02:20:05;;;;;;;6.57;4.12;;;;;;;27.71;44.12;99743.78;4362528;32;35069;-66
2023/06/24 02:22:33;;;;;;;7.82;4.47;;;;;;;27.73;44.08;99749.00;4375903;32;33737;-66
2023/06/24 02:25:00;;;;;;;6.45;3.60;;;;;;;27.74;44.03;99733.34;4362624;32;33650;-65
2023/06/24 02:27:28;;;;;;;8.48;4.07;;;;;;;27.73;43.98;99737.19;4362378;32;33904;-65
2023/06/24 02:29:56;;;;;;;6.37;3.80;;;;;;;27.73;43.96;99740.75;4362586;32;34124;-66
2023/06/24 02:32:24;;;;;;;6.47;3.92;;;;;;;27.73;43.96;99743.50;4363710;32;33250;-65
2023/06/24 02:34:52;;;;;;;6.30;4.25;;;;;;;27.73;43.91;99743.50;4352139;32;34548;-66
2023/06/24 02:37:20;;;;;;;6.12;3.95;;;;;;;27.73;43.91;99750.91;4364170;32;33673;-66
2023/06/24 02:39:48;;;;;;;6.03;4.03;;;;;;;27.73;43.82;99754.47;4364283;32;34710;-66
2023/06/24 02:42:16;;;;;;;5.60;4.25;;;;;;;27.73;43.82;99748.16;4377997;32;34441;-66
2023/06/24 02:44:43;;;;;;;6.12;3.87;;;;;;;27.73;43.82;99754.47;4377558;32;33803;-66
2023/06/24 02:47:12;;;;;;;5.70;3.95;;;;;;;27.73;43.76;99748.16;4364320;32;34664;-65
2023/06/24 02:49:40;;;;;;;6.35;4.10;;;;;;;27.72;43.77;99747.34;4364185;32;34024;-66
2023/06/24 02:52:07;;;;;;;8.18;3.97;;;;;;;27.71;43.67;99757.47;4364056;32;34428;-66
2023/06/24 02:54:35;;;;;;;7.53;4.05;;;;;;;27.70;43.66;99761.28;4364520;32;34619;-65
2023/06/24 02:57:06;;;;;;;5.97;3.60;;;;;;;27.71;43.65;99764.84;4364644;32;33280;-65
2023/06/24 02:59:35;;;;;;;5.65;3.80;;;;;;;27.71;43.64;99760.22;4352484;32;33192;-65
2023/06/24 03:02:06;;;;;;;8.07;4.05;;;;;;;27.70;43.65;99768.69;4364862;32;33210;-64
2023/06/24 03:04:33;;;;;;;5.97;4.28;;;;;;;27.71;43.61;99773.06;4363952;32;33608;-65
2023/06/24 03:07:02;;;;;;;8.15;4.20;;;;;;;27.71;43.58;99778.56;4364413;32;34741;-64
2023/06/24 03:09:34;;;;;;;8.43;4.22;;;;;;;27.70;43.55;99785.13;4364575;32;33684;-65
2023/06/24 03:12:01;;;;;;;5.50;3.80;;;;;;;27.70;43.53;99780.47;4364236;32;33492;-65
2023/06/24 03:14:29;;;;;;;5.30;3.30;;;;;;;27.70;43.54;99777.72;4377846;32;33806;-65
2023/06/24 03:16:57;;;;;;;6.35;3.92;;;;;;;27.69;43.52;99770.56;4377542;32;34018;-65
2023/06/24 03:19:25;;;;;;;7.18;3.85;;;;;;;27.69;43.43;99769.75;4377344;32;33720;-66
2023/06/24 03:21:53;;;;;;;6.07;3.60;;;;;;;27.69;43.48;99764.25;4377631;32;35064;-64
2023/06/24 03:24:20;;;;;;;6.43;3.22;;;;;;;27.69;43.41;99767.00;4377754;32;34291;-64
2023/06/24 03:26:50;;;;;;;7.20;3.50;;;;;;;27.68;43.33;99763.44;4377538;32;34672;-65
2023/06/24 03:29:18;;;;;;;5.30;3.62;;;;;;;27.68;43.28;99777.12;4377699;32;34941;-65
2023/06/24 03:31:47;;;;;;;7.85;3.67;;;;;;;27.69;43.24;99775.22;4377717;32;34362;-65
2023/06/24 03:34:16;;;;;;;5.18;3.10;;;;;;;27.69;43.21;99778.78;4377675;32;34179;-64
2023/06/24 03:36:44;;;;;;;5.85;3.42;;;;;;;27.69;43.20;99775.22;4377534;32;34078;-65
2023/06/24 03:39:12;;;;;;;6.25;3.30;;;;;;;27.69;43.13;99784.25;4377605;32;33603;-64
2023/06/24 03:41:40;;;;;;;4.30;2.72;;;;;;;27.68;43.13;99782.63;4363735;32;32590;-64
2023/06/24 03:44:08;;;;;;;5.53;3.12;;;;;;;27.68;43.16;99790.84;4376540;32;34630;-65
2023/06/24 03:46:36;;;;;;;4.70;2.97;;;;;;;27.67;43.11;99788.37;4377449;32;33715;-65
2023/06/24 03:49:03;;;;;;;4.62;2.70;;;;;;;27.69;43.04;99797.16;4377604;32;34794;-65
2023/06/24 03:51:31;;;;;;;4.72;2.87;;;;;;;27.68;43.05;99800.97;4377633;32;34239;-65
2023/06/24 03:53:59;;;;;;;6.65;2.58;;;;;;;27.67;42.98;99807.56;4377459;32;33983;-65
2023/06/24 03:56:27;;;;;;;5.60;2.90;;;;;;;27.67;42.94;99810.28;4372674;32;34586;-66
2023/06/24 03:58:54;;;;;;;5.00;3.22;;;;;;;27.66;42.93;99823.19;4348916;32;33616;-64
2023/06/24 04:01:23;;;;;;;5.00;2.77;;;;;;;27.65;42.87;99821.53;4362476;32;33231;-65
2023/06/24 04:03:51;;;;;;;5.12;2.50;;;;;;;27.66;42.84;99841.53;4348744;32;33702;-65
2023/06/24 04:06:19;;;;;;;5.78;2.75;;;;;;;27.65;42.80;99840.72;4362273;32;34021;-65
2023/06/24 04:08:48;;;;;;;6.32;2.37;;;;;;;27.65;42.78;99842.59;4362157;32;33632;-65
2023/06/24 04:11:16;;;;;;;6.60;2.72;;;;;;;27.63;42.75;99840.13;4362236;32;34453;-66
2023/06/24 04:13:45;;;;;;;4.93;2.53;;;;;;;27.65;42.65;99845.34;4362241;32;33950;-65
2023/06/24 04:16:13;;;;;;;5.82;2.60;;;;;;;27.63;42.65;99848.34;4348772;32;33985;-64
2023/06/24 04:18:42;;;;;;;4.97;2.30;;;;;;;27.64;42.52;99843.69;4362213;32;34158;-66
2023/06/24 04:21:09;;;;;;;4.03;2.20;;;;;;;27.63;42.58;99842.03;4362194;32;33276;-66
2023/06/24 04:23:37;;;;;;;4.07;2.12;;;;;;;27.62;42.54;99834.91;4362071;32;34660;-66
2023/06/24 04:26:05;;;;;;;3.58;2.20;;;;;;;27.62;42.43;99846.69;4348733;32;34046;-65
2023/06/24 04:28:32;;;;;;;2.70;1.60;;;;;;;27.63;42.42;99847.53;4348723;32;34114;-65
2023/06/24 04:31:00;;;;;;;3.47;1.80;;;;;;;27.62;42.41;99841.22;4362029;32;33983;-65
2023/06/24 04:33:28;;;;;;;5.07;1.80;;;;;;;27.62;42.42;99843.13;4362388;32;33844;-65
2023/06/24 04:35:56;;;;;;;2.70;1.77;;;;;;;27.62;42.42;99852.19;4362462;32;33863;-66
2023/06/24 04:38:24;;;;;;;3.30;1.87;;;;;;;27.62;42.41;99852.19;4361833;32;34097;-67
2023/06/24 04:40:53;;;;;;;4.25;1.60;;;;;;;27.62;42.39;99851.34;4362419;32;33573;-67
2023/06/24 04:43:20;;;;;;;2.92;1.58;;;;;;;27.62;42.36;99865.06;4361963;32;34587;-65
2023/06/24 04:45:48;;;;;;;3.75;1.60;;;;;;;27.61;42.24;99853.25;4361920;32;33615;-66
2023/06/24 04:48:16;;;;;;;5.10;1.83;;;;;;;27.61;42.35;99842.28;4362045;32;33890;-67
2023/06/24 04:50:44;;;;;;;6.90;1.70;;;;;;;27.61;42.27;99834.06;4361973;32;33660;-66
2023/06/24 04:53:11;;;;;;;3.35;1.73;;;;;;;27.61;42.26;99830.50;4361986;32;34022;-67
2023/06/24 04:55:39;;;;;;;3.47;1.70;;;;;;;27.60;42.29;99837.88;4361641;32;33623;-66
2023/06/24 04:58:06;;;;;;;4.45;1.50;;;;;;;27.60;42.21;99845.28;4361920;32;34450;-67
2023/06/24 05:00:34;;;;;;;3.05;1.30;;;;;;;27.59;42.15;99849.94;4348390;32;32776;-67
2023/06/24 05:03:02;;;;;;;2.60;1.35;;;;;;;27.58;42.17;99840.06;4361957;32;33914;-66
2023/06/24 05:05:30;;;;;;;3.53;1.55;;;;;;;27.57;42.13;99849.37;4348306;32;34751;-66
2023/06/24 05:08:01;;;;;;;3.17;1.50;;;;;;;27.58;42.05;99853.75;4349076;32;34767;-67
2023/06/24 05:10:29;;;;;;;2.92;1.25;;;;;;;27.57;42.03;99846.63;4361861;32;34512;-66
2023/06/24 05:12:56;;;;;;;1.48;0.98;;;;;;;27.56;42.02;99842.22;4361961;32;33837;-67
2023/06/24 05:15:24;;;;;;;3.33;1.25;;;;;;;27.57;41.94;99840.31;4361871;32;33999;-65
2023/06/24 05:17:51;;;;;;;1.55;1.00;;;;;;;27.57;41.96;99849.37;4361801;32;34156;-64
2023/06/24 05:20:20;;;;;;;3.40;1.00;;;;;;;27.56;41.95;99847.72;4361634;32;33127;-65
2023/06/24 05:22:48;;;;;;;2.15;1.10;;;;;;;27.56;41.95;99844.12;4361678;32;33665;-65
2023/06/24 05:25:15;;;;;;;1.52;1.00;;;;;;;27.56;41.88;99844.12;4372362;32;34703;-65
2023/06/24 05:27:44;;;;;;;1.30;0.85;;;;;;;27.56;41.87;99841.37;4376494;32;34908;-64
2023/06/24 05:30:12;;;;;;;1.83;0.90;;;;;;;27.56;41.88;99847.72;4376680;32;33773;-65
2023/06/24 05:32:40;;;;;;;1.77;0.98;;;;;;;27.57;41.85;99849.37;4376588;32;33892;-65
2023/06/24 05:35:08;;;;;;;2.33;0.90;;;;;;;27.56;41.78;99844.97;4362913;32;33946;-65
2023/06/24 05:37:36;;;;;;;3.12;1.00;;;;;;;27.55;41.78;99857.00;4376555;32;34742;-65
2023/06/24 05:40:05;;;;;;;3.35;1.15;;;;;;;27.55;41.74;99859.72;4376512;32;33609;-65
2023/06/24 05:42:33;;;;;;;3.45;1.17;;;;;;;27.54;41.72;99855.34;4376161;32;33799;-65
2023/06/24 05:45:01;;;;;;;1.80;0.73;;;;;;;27.55;41.61;99869.88;4376690;32;33659;-65
2023/06/24 05:47:29;;;;;;;1.45;0.90;;;;;;;27.55;41.60;99875.34;4376376;32;34775;-64
2023/06/24 05:49:56;;;;;;;2.95;1.00;;;;;;;27.54;41.67;99870.97;4376328;32;33700;-64
2023/06/24 05:52:24;;;;;;;0.82;0.80;;;;;;;27.53;41.71;99878.34;4376392;32;34557;-67
2023/06/24 05:54:52;;;;;;;2.47;0.80;;;;;;;27.53;41.76;99872.88;4376305;32;34877;-66
2023/06/24 05:57:19;;;;;;;1.83;0.90;;;;;;;27.55;41.76;99889.06;4365926;32;34766;-66
2023/06/24 05:59:47;;;;;;;1.50;0.75;;;;;;;27.54;41.72;99880.00;4361323;32;33598;-67
2023/06/24 06:02:15;;;;;;;1.80;0.77;;;;;;;27.56;41.68;99885.22;4361431;32;34734;-66
2023/06/24 06:04:43;;;;;;;0.82;0.77;;;;;;;27.54;41.70;99892.88;4347477;32;32892;-64
2023/06/24 06:07:10;;;;;;;0.82;0.80;;;;;;;27.54;41.72;99893.72;4360224;32;34841;-65
2023/06/24 06:09:38;;;;;;;3.55;0.80;;;;;;;27.55;41.72;99897.28;4365725;32;34430;-67
2023/06/24 06:12:06;;;;;;;1.23;0.80;;;;;;;27.55;41.69;99897.28;4375875;32;33238;-67
2023/06/24 06:14:34;;;;;;;1.67;0.68;;;;;;;27.52;41.67;99887.66;4376132;32;34790;-66
2023/06/24 06:17:01;;;;;;;1.95;0.95;;;;;;;27.53;41.62;99896.72;4375934;32;34055;-66
2023/06/24 06:19:29;;;;;;;1.70;0.90;;;;;;;27.51;41.60;99896.94;4375957;32;33502;-65
2023/06/24 06:21:57;;;;;;;2.78;0.70;;;;;;;27.49;41.51;99915.56;4376036;32;34641;-65
2023/06/24 06:24:24;;;;;;;3.62;0.90;;;;;;;27.48;41.50;99905.69;4362424;32;34398;-67
2023/06/24 06:26:52;;;;;;;1.60;0.73;;;;;;;27.46;41.50;99903.19;4362254;32;33871;-67
2023/06/24 06:29:19;;;;;;;1.73;0.90;;;;;;;27.45;41.50;99907.00;4375915;32;33584;-65
2023/06/24 06:31:47;;;;;;;1.30;0.73;;;;;;;27.44;41.51;99907.28;4375854;32;33917;-64
2023/06/24 06:34:14;;;;;;;1.70;0.80;;;;;;;27.41;41.55;99903.09;4375858;32;34515;-67
2023/06/24 06:36:42;;;;;;;2.15;0.80;;;;;;;27.41;41.63;99908.59;4362265;32;34785;-67
2023/06/24 06:39:09;;;;;;;2.15;0.80;;;;;;;27.40;41.63;99908.84;4375677;32;34325;-65
2023/06/24 06:41:37;;;;;;;2.28;1.00;;;;;;;27.39;41.69;99907.19;4375941;32;33618;-66
2023/06/24 06:44:05;;;;;;;1.85;1.00;;;;;;;27.39;41.75;99910.75;4368901;32;34720;-68
2023/06/24 06:46:33;;;;;;;3.00;0.98;;;;;;;27.38;41.71;99914.59;4360672;32;33982;-65
2023/06/24 06:49:01;;;;;;;3.08;0.77;;;;;;;27.36;41.76;99919.47;4360745;32;34175;-65
2023/06/24 06:51:28;;;;;;;2.22;0.95;;;;;;;27.37;41.88;99923.91;4360847;32;34045;-68
2023/06/24 06:53:55;;;;;;;0.82;0.75;;;;;;;27.37;41.82;99918.41;4360512;32;33900;-66
2023/06/24 06:56:26;;;;;;;3.17;1.05;;;;;;;27.35;41.83;99917.81;4365073;32;34748;-67
2023/06/24 06:58:54;;;;;;;1.67;1.00;;;;;;;27.37;41.79;99923.03;4375567;32;33743;-67
2023/06/24 07:01:21;;;;;;;3.40;1.05;;;;;;;27.35;41.78;99917.00;4361773;32;33640;-66
2023/06/24 07:03:49;;;;;;;1.30;0.88;;;;;;;27.34;41.82;99918.06;4375459;32;34824;-66
2023/06/24 07:06:20;;;;;;;3.75;1.10;;;;;;;27.35;41.88;99908.78;4375270;32;34264;-67
2023/06/24 07:08:47;;;;;;;5.82;1.00;;;;;;;27.35;41.91;99904.13;4375254;32;33576;-66
2023/06/24 07:11:16;;;;;;;4.25;1.02;;;;;;;27.35;41.87;99908.78;4375379;32;34057;-66
2023/06/24 07:13:44;;;;;;;3.92;1.40;;;;;;;27.34;41.93;99904.38;4375349;32;33164;-66
2023/06/24 07:16:12;;;;;;;1.95;1.02;;;;;;;27.37;41.93;99898.38;4361549;32;34194;-64
2023/06/24 07:18:40;;;;;;;1.77;1.08;;;;;;;27.37;41.96;99903.84;4376644;32;33459;-64
2023/06/24 07:21:07;;;;;;;2.45;1.00;;;;;;;27.37;42.01;99898.38;4377340;32;34698;-64
2023/06/24 07:23:35;;;;;;;1.37;0.95;;;;;;;27.38;42.04;99900.88;4377404;32;34769;-63
2023/06/24 07:26:02;;;;;;;1.75;1.10;;;;;;;27.40;42.10;99903.38;4377358;32;34724;-64
2023/06/24 07:28:30;;;;;;;1.35;1.10;;;;;;;27.40;42.16;99906.94;4377458;32;34275;-64
2023/06/24 07:30:58;;;;;;;2.83;1.37;;;;;;;27.43;42.20;99905.62;4377287;32;34011;-63
2023/06/24 07:33:26;;;;;;;3.10;1.00;;;;;;;27.43;42.26;99914.66;4377379;32;34737;-64
2023/06/24 07:35:53;;;;;;;2.92;0.90;;;;;;;27.44;42.23;99915.50;4377815;32;34281;-63
2023/06/24 07:38:21;;;;;;;2.30;0.90;;;;;;;27.46;42.24;99925.09;4377119;32;34066;-63
2023/06/24 07:40:49;;;;;;;2.42;1.17;;;;;;;27.47;42.21;99942.41;4377189;32;34305;-64
2023/06/24 07:43:16;;;;;;;0.90;0.80;;;;;;;27.49;42.21;99955.84;4363723;32;33569;-64
2023/06/24 07:45:44;;;;;;;2.92;0.90;;;;;;;27.49;42.23;99940.22;4377467;32;33820;-63
2023/06/24 07:48:11;;;;;;;1.92;1.10;;;;;;;27.50;42.25;99944.62;4377239;32;33592;-64
2023/06/24 07:50:39;;;;;;;1.33;1.08;;;;;;;27.50;42.23;99944.62;4363879;32;33883;-64
2023/06/24 07:53:06;;;;;;;1.33;0.95;;;;;;;27.53;42.26;99937.81;4377266;32;33916;-64
2023/06/24 07:55:34;;;;;;;1.52;1.00;;;;;;;27.53;42.25;99930.44;4377318;32;33905;-63
2023/06/24 07:58:02;;;;;;;1.40;1.10;;;;;;;27.55;42.25;99944.69;4377297;32;34348;-63
2023/06/24 08:00:30;;;;;;;1.65;1.20;;;;;;;27.56;42.21;99926.34;4377124;32;34346;-63
2023/06/24 08:02:58;;;;;;;3.25;1.17;;;;;;;27.57;42.24;99931.59;4351342;32;33990;-65
2023/06/24 08:05:26;;;;;;;3.03;1.08;;;;;;;27.58;42.26;99941.47;4377343;32;34819;-65
2023/06/24 08:07:53;;;;;;;3.92;1.40;;;;;;;27.58;42.26;99943.38;4377076;32;33344;-65
2023/06/24 08:10:21;;;;;;;1.98;1.10;;;;;;;27.58;42.20;99941.47;4377190;32;33880;-65
2023/06/24 08:12:49;;;;;;;2.15;1.15;;;;;;;27.57;42.18;99941.72;4377443;32;34062;-65
2023/06/24 08:15:16;;;;;;;1.40;1.02;;;;;;;27.57;42.17;99939.81;4377022;32;33844;-65
2023/06/24 08:17:44;;;;;;;2.95;1.40;;;;;;;27.58;42.17;99941.47;4377258;32;33057;-64
2023/06/24 08:20:12;;;;;;;2.03;1.20;;;;;;;27.61;42.15;99948.37;4363491;32;33898;-64
2023/06/24 08:22:39;;;;;;;1.80;1.12;;;;;;;27.61;42.17;99956.59;4363611;32;33518;-65
2023/06/24 08:25:07;;;;;;;1.92;1.20;;;;;;;27.61;42.23;99949.19;4377064;32;34084;-65
2023/06/24 08:27:36;;;;;;;2.47;1.12;;;;;;;27.63;42.30;99958.00;4376850;32;33575;-65
2023/06/24 08:30:05;;;;;;;3.67;1.30;;;;;;;27.64;42.33;99948.69;4376411;32;33903;-64
2023/06/24 08:32:33;;;;;;;1.50;1.10;;;;;;;27.66;42.31;99948.44;4363914;32;33952;-65
2023/06/24 08:35:01;;;;;;;3.25;1.27;;;;;;;27.66;42.31;99952.00;4363658;32;34094;-65
2023/06/24 08:37:28;;;;;;;1.45;1.10;;;;;;;27.67;42.34;99961.06;4363725;32;32452;-63
2023/06/24 08:39:56;;;;;;;2.35;1.00;;;;;;;27.68;42.36;99957.25;4376968;32;33728;-63
2023/06/24 08:42:24;;;;;;;2.45;1.30;;;;;;;27.69;42.36;99962.47;4376831;32;34073;-63
2023/06/24 08:44:51;;;;;;;1.77;1.10;;;;;;;27.70;42.37;99958.66;4363826;32;34125;-64
2023/06/24 08:47:19;;;;;;;2.58;1.20;;;;;;;27.70;42.37;99952.34;4376872;32;34375;-63
2023/06/24 08:49:51;;;;;;;2.70;1.00;;;;;;;27.71;42.37;99948.53;4363271;32;34634;-63
2023/06/24 08:52:18;;;;;;;1.50;1.02;;;;;;;27.71;42.33;99951.25;4377094;32;33764;-64
2023/06/24 08:54:47;;;;;;;1.75;1.05;;;;;;;27.70;42.33;99955.91;4363319;32;34191;-64
2023/06/24 08:57:15;;;;;;;3.53;1.20;;;;;;;27.69;42.36;99962.47;4341645;32;33540;-64
2023/06/24 08:59:43;;;;;;;1.85;0.98;;;;;;;27.70;42.39;99966.88;4348520;32;33963;-64
2023/06/24 09:02:11;;;;;;;1.90;1.15;;;;;;;27.71;42.37;99962.22;4361880;32;34637;-66
2023/06/24 09:04:40;;;;;;;6.40;1.20;;;;;;;27.71;42.32;99949.38;4361692;32;34041;-67
2023/06/24 09:07:07;;;;;;;2.55;1.25;;;;;;;27.71;42.27;99941.16;4362053;32;33663;-67
2023/06/24 09:09:42;;;;;;;2.28;1.20;;;;;;;27.70;42.25;99947.69;4361832;32;33420;-65
2023/06/24 09:12:13;;;;;;;2.05;1.10;;;;;;;27.71;42.28;99951.25;4336527;32;34060;-66
2023/06/24 09:14:47;;;;;;;1.65;1.00;;;;;;;27.70;42.34;99944.94;4348285;32;33051;-65
2023/06/24 09:17:14;;;;;;;2.75;1.10;;;;;;;27.69;42.33;99945.19;4348313;32;33180;-66
2023/06/24 09:19:42;;;;;;;2.67;1.30;;;;;;;27.69;42.37;99946.00;4361771;32;33647;-66
2023/06/24 09:22:17;;;;;;;3.53;1.10;;;;;;;27.69;42.42;99956.16;4361926;32;33890;-65
2023/06/24 09:24:46;;;;;;;2.62;1.10;;;;;;;27.69;42.45;99965.19;4361648;32;33801;-64
2023/06/24 09:27:14;;;;;;;1.62;1.00;;;;;;;27.68;42.43;99958.06;4348167;32;33178;-66
2023/06/24 09:29:42;;;;;;;1.52;0.98;;;;;;;27.70;42.46;99955.91;4348201;32;34630;-65
2023/06/24 09:32:10;;;;;;;0.98;0.90;;;;;;;27.71;42.48;99952.12;4336368;32;33850;-63
2023/06/24 09:34:38;;;;;;;1.48;1.00;;;;;;;27.71;42.50;99943.91;4361688;32;34819;-66
2023/06/24 09:37:06;;;;;;;1.55;1.10;;;;;;;27.73;42.55;99938.16;4348292;32;34438;-63
2023/06/24 09:39:38;;;;;;;3.28;1.10;;;;;;;27.75;42.59;99937.91;4361605;32;33993;-64
2023/06/24 09:42:06;;;;;;;3.25;1.10;;;;;;;27.76;42.61;99947.81;4334713;32;33994;-67
2023/06/24 09:44:34;;;;;;;2.87;1.20;;;;;;;27.79;42.55;99944.53;4348153;32;34180;-63
2023/06/24 09:47:02;;;;;;;2.45;1.30;;;;;;;27.79;42.48;99939.03;4361618;32;34355;-63
2023/06/24 09:49:29;;;;;;;3.65;1.20;;;;;;;27.79;42.49;99947.28;4361867;32;33947;-66
2023/06/24 09:51:58;;;;;;;3.08;1.20;;;;;;;27.78;42.52;99938.22;4348344;32;34776;-66
2023/06/24 09:54:30;;;;;;;1.77;1.20;;;;;;;27.80;42.51;99946.22;4361567;32;34109;-66
2023/06/24 09:57:02;;;;;;;2.08;1.12;;;;;;;27.80;42.55;99946.22;4370058;32;34865;-66
2023/06/24 09:59:30;;;;;;;1.92;1.30;;;;;;;27.80;42.57;99941.56;4376404;32;33726;-65
2023/06/24 10:01:57;;;;;;;2.80;1.27;;;;;;;27.81;42.65;99934.16;4362868;32;33916;-65
2023/06/24 10:04:25;;;;;;;2.53;1.50;;;;;;;27.81;42.68;99928.66;4362884;32;34895;-65
2023/06/24 10:06:53;;;;;;;3.08;1.33;;;;;;;27.82;42.68;99928.41;4362834;32;33713;-66
2023/06/24 10:09:20;;;;;;;3.12;1.10;;;;;;;27.82;42.72;99928.41;4350583;32;33934;-65
2023/06/24 10:11:48;;;;;;;2.08;1.37;;;;;;;27.82;42.75;99933.91;4362754;32;34934;-66
2023/06/24 10:14:16;;;;;;;1.15;0.98;;;;;;;27.84;42.71;99925.41;4376314;32;33913;-66
2023/06/24 10:16:44;;;;;;;1.62;1.10;;;;;;;27.84;42.71;99922.66;4376426;32;33343;-66
2023/06/24 10:19:18;;;;;;;1.65;1.12;;;;;;;27.85;42.76;99921.59;4376106;32;33558;-66
2023/06/24 10:21:53;;;;;;;2.75;1.20;;;;;;;27.87;42.76;99930.41;4363531;32;34197;-66
2023/06/24 10:24:28;;;;;;;2.58;1.30;;;;;;;27.88;42.81;99935.62;4376198;32;33725;-67
2023/06/24 10:27:02;;;;;;;2.12;1.10;;;;;;;27.90;42.83;99927.97;4376044;32;34410;-67
2023/06/24 10:29:34;;;;;;;1.80;1.25;;;;;;;27.89;42.87;99912.63;4362484;32;33859;-66
2023/06/24 10:32:05;;;;;;;1.75;1.25;;;;;;;27.89;42.92;99909.87;4375868;32;33926;-65
2023/06/24 10:34:34;;;;;;;2.62;1.00;;;;;;;27.92;42.99;99905.78;4375794;32;34125;-67
2023/06/24 10:37:02;;;;;;;4.22;1.62;;;;;;;27.92;43.02;99903.88;4375573;32;33530;-67
2023/06/24 10:39:39;;;;;;;2.42;1.30;;;;;;;27.93;43.10;99904.69;4349695;32;33536;-67
2023/06/24 10:42:19;;;;;;;1.60;1.00;;;;;;;27.94;43.04;99907.19;4375327;32;34034;-67
2023/06/24 10:44:47;;;;;;;1.60;1.10;;;;;;;27.97;43.01;99903.09;4375753;32;34847;-67
2023/06/24 10:47:15;;;;;;;2.75;1.30;;;;;;;27.96;42.97;99906.94;4362294;32;34049;-68
2023/06/24 10:49:43;;;;;;;1.70;1.10;;;;;;;27.98;42.92;99910.28;4360639;32;33840;-68
2023/06/24 10:52:10;;;;;;;1.90;1.20;;;;;;;27.97;42.89;99906.66;4349520;32;33193;-68
2023/06/24 10:54:38;;;;;;;2.50;1.40;;;;;;;27.99;42.85;99914.66;4362133;32;34794;-67
2023/06/24 10:57:07;;;;;;;3.97;1.20;;;;;;;27.98;42.80;99915.75;4362122;32;33673;-68
2023/06/24 10:59:35;;;;;;;2.25;1.30;;;;;;;27.98;42.75;99921.25;4375721;32;33845;-67
2023/06/24 11:02:02;;;;;;;1.70;1.25;;;;;;;27.99;42.69;99925.63;4375739;32;34478;-68
2023/06/24 11:04:30;;;;;;;1.92;1.40;;;;;;;27.99;42.75;99933.03;4362061;32;33839;-68
2023/06/24 11:07:01;;;;;;;1.80;1.30;;;;;;;28.01;42.73;99925.37;4375665;32;33590;-68
2023/06/24 11:09:28;;;;;;;2.90;1.40;;;;;;;28.00;42.71;99919.06;4351486;32;34576;-68
2023/06/24 11:11:56;;;;;;;3.03;1.50;;;;;;;28.00;42.54;99915.50;4377269;32;34019;-68
2023/06/24 11:14:23;;;;;;;1.45;1.15;;;;;;;28.00;42.50;99921.81;4377635;32;34861;-67
2023/06/24 11:16:51;;;;;;;1.98;1.02;;;;;;;28.01;42.59;99923.47;4377653;32;33483;-68
2023/06/24 11:19:19;;;;;;;2.47;1.40;;;;;;;28.00;42.64;99923.72;4364250;32;33794;-69
2023/06/24 11:21:46;;;;;;;4.05;1.33;;;;;;;28.01;42.67;99925.37;4377475;32;34765;-68
2023/06/24 11:24:14;;;;;;;1.45;1.10;;;;;;;28.02;42.71;99914.12;4377516;32;34234;-68
2023/06/24 11:26:42;;;;;;;2.97;1.30;;;;;;;28.02;42.77;99916.87;4377316;32;34537;-66
2023/06/24 11:29:11;;;;;;;2.58;1.23;;;;;;;28.03;42.81;99918.56;4377282;32;34547;-66
2023/06/24 11:31:38;;;;;;;2.00;1.30;;;;;;;28.03;42.86;99918.56;4377435;32;33915;-67
2023/06/24 11:34:06;;;;;;;1.70;1.17;;;;;;;28.05;42.90;99912.81;4377381;32;33745;-67
2023/06/24 11:36:34;;;;;;;2.40;1.15;;;;;;;28.05;42.98;99908.16;4377452;32;33561;-66
2023/06/24 11:39:03;;;;;;;2.55;0.90;;;;;;;28.06;43.01;99898.84;4363878;32;34023;-66
2023/06/24 11:41:30;;;;;;;2.42;1.17;;;;;;;28.05;43.05;99888.13;4377028;32;33988;-67
2023/06/24 11:43:58;;;;;;;2.78;1.00;;;;;;;28.07;43.10;99885.94;4376960;32;34737;-68